createdAt,value
2019-02-06T00:01:09.985Z,1.68
2019-02-06T00:07:05.017Z,1.86
2019-02-06T00:13:00.047Z,1.9
2019-02-06T00:18:55.036Z,2.03
2019-02-06T00:24:50.019Z,1.8
2019-02-06T00:30:45.021Z,1.96
2019-02-06T00:36:40.085Z,2.04
2019-02-06T00:42:35.027Z,1.73
2019-02-06T00:48:30.074Z,1.41
2019-02-06T00:54:25.032Z,1.9
2019-02-06T01:00:20.068Z,1.31
2019-02-06T01:06:15.092Z,1.41
2019-02-06T01:12:10.033Z,1.78
2019-02-06T01:18:05.043Z,1.51
2019-02-06T01:24:00.085Z,2.47
2019-02-06T01:29:55.037Z,1.81
2019-02-06T01:35:50.347Z,1.33
2019-02-06T01:41:45.093Z,1.47
2019-02-06T01:47:40.102Z,1.37
2019-02-06T01:53:35.064Z,1.63
2019-02-06T01:59:30.057Z,1.27
2019-02-06T02:05:25.089Z,1.22
2019-02-06T02:11:20.053Z,1.35
2019-02-06T02:17:15.117Z,1.23
2019-02-06T02:23:10.080Z,1.71
2019-02-06T02:29:05.105Z,1.98
2019-02-06T02:35:00.169Z,1.36
2019-02-06T02:40:55.147Z,1.37
2019-02-06T02:46:50.100Z,2.63
2019-02-06T02:52:45.105Z,1.24
2019-02-06T02:58:40.083Z,1.49
2019-02-06T03:04:35.117Z,1.31
2019-02-06T03:10:30.109Z,1.34
2019-02-06T03:16:25.157Z,1.9
2019-02-06T03:22:20.148Z,2.25
2019-02-06T03:28:15.136Z,1.61
2019-02-06T03:34:10.141Z,1.31
2019-02-06T03:40:05.117Z,1.43
2019-02-06T03:46:00.133Z,1.41
2019-02-06T03:51:55.171Z,1.23
2019-02-06T03:57:50.111Z,1.3
2019-02-06T04:03:45.110Z,2.2
2019-02-06T04:09:40.153Z,2.54
2019-02-06T04:15:35.159Z,1.41
2019-02-06T04:21:30.195Z,1.45
2019-02-06T04:27:25.135Z,1.15
2019-02-06T04:33:20.193Z,1.19
2019-02-06T04:39:15.143Z,1.83
2019-02-06T04:45:10.246Z,1.23
2019-02-06T04:51:05.155Z,1.1
2019-02-06T04:57:00.148Z,2.07
2019-02-06T05:02:55.150Z,1.08
2019-02-06T05:08:50.203Z,1.02
2019-02-06T05:14:45.166Z,1.02
2019-02-06T05:20:40.189Z,1.31
2019-02-06T05:26:35.175Z,1.58
2019-02-06T05:32:30.208Z,0.92
2019-02-06T05:38:25.182Z,1.6
2019-02-06T05:44:20.174Z,1.26
2019-02-06T05:50:15.178Z,1.45
2019-02-06T05:56:10.211Z,1.12
2019-02-06T06:02:05.183Z,1.42
2019-02-06T06:08:00.195Z,1.03
2019-02-06T06:13:55.189Z,1.43
2019-02-06T06:19:50.200Z,0.99
2019-02-06T06:25:45.218Z,1.4
2019-02-06T06:31:40.202Z,1.1
2019-02-06T06:37:35.217Z,1.2
2019-02-06T06:43:30.216Z,1.76
2019-02-06T06:49:25.236Z,1.04
2019-02-06T06:55:20.210Z,1.08
2019-02-06T07:01:15.236Z,0.98
2019-02-06T07:07:10.209Z,0.96
2019-02-06T07:13:05.237Z,1.15
2019-02-06T07:19:00.270Z,2.13
2019-02-06T07:24:55.232Z,1.2
2019-02-06T07:30:50.243Z,1.7
2019-02-06T07:36:45.223Z,1.46
2019-02-06T07:42:40.236Z,2.9
2019-02-06T07:48:35.242Z,2.37
2019-02-06T07:54:30.228Z,3.19
2019-02-06T08:00:25.250Z,1.69
2019-02-06T08:06:20.235Z,1.98
2019-02-06T08:12:15.259Z,3.4
2019-02-06T08:18:10.260Z,3.2
2019-02-06T08:24:05.260Z,2.02
2019-02-06T08:30:00.332Z,1.97
2019-02-06T08:35:55.279Z,1.83
2019-02-06T08:41:50.309Z,1.74
2019-02-06T08:47:45.296Z,1.92
2019-02-06T08:53:40.282Z,1.56
2019-02-06T08:59:36.194Z,2.8
2019-02-06T09:05:30.333Z,1.73
2019-02-06T09:11:25.308Z,2.57
2019-02-06T09:17:20.294Z,1.5
2019-02-06T09:23:15.290Z,1.89
2019-02-06T09:29:10.291Z,1.68
2019-02-06T09:35:05.307Z,1.72
2019-02-06T09:41:00.328Z,1.39
2019-02-06T09:46:55.346Z,1.68
2019-02-06T09:52:50.333Z,1.7
2019-02-06T09:58:45.322Z,2.06
2019-02-06T10:04:40.322Z,2.44
2019-02-06T10:10:35.352Z,2.11
2019-02-06T10:16:30.321Z,2.05
2019-02-06T10:22:25.337Z,1.78
2019-02-06T10:28:20.334Z,2.33
2019-02-06T10:34:15.352Z,3
2019-02-06T10:40:10.340Z,2.55
2019-02-06T10:46:05.391Z,1.77
2019-02-06T10:52:00.326Z,2.3
2019-02-06T10:57:55.343Z,2.6
2019-02-06T11:03:50.357Z,2.94
2019-02-06T11:09:46.450Z,2.79
2019-02-06T11:15:40.352Z,3.64
2019-02-06T11:21:35.357Z,2.37
2019-02-06T11:27:30.338Z,2.95
2019-02-06T11:33:25.377Z,2.29
2019-02-06T11:39:20.360Z,2.62
2019-02-06T11:45:15.378Z,1.79
2019-02-06T11:51:10.400Z,1.28
2019-02-06T11:57:05.386Z,1.8
2019-02-06T12:03:00.421Z,2.6
2019-02-06T12:08:55.388Z,2.16
2019-02-06T12:14:50.415Z,2.47
2019-02-06T12:20:45.403Z,2.86
2019-02-06T12:26:40.414Z,2.02
2019-02-06T12:32:35.394Z,1.89
2019-02-06T12:38:30.406Z,1.92
2019-02-06T12:44:25.411Z,2.6
2019-02-06T12:50:20.414Z,2.3
2019-02-06T12:56:15.413Z,2.9
2019-02-06T13:02:10.419Z,2.26
2019-02-06T13:08:05.420Z,2.56
2019-02-06T13:14:00.436Z,2.1
2019-02-06T13:19:55.471Z,2.71
2019-02-06T13:25:50.456Z,2.46
2019-02-06T13:31:45.435Z,2.27
2019-02-06T13:37:40.452Z,1.87
2019-02-06T13:43:35.427Z,2.24
2019-02-06T13:49:30.443Z,3.37
2019-02-06T13:55:25.481Z,4.17
2019-02-06T14:01:25.498Z,2.75
2019-02-06T14:07:15.442Z,4.23
2019-02-06T14:13:10.468Z,3.56
2019-02-06T14:19:05.461Z,2.9
2019-02-06T14:25:00.442Z,5.35
2019-02-06T14:30:55.511Z,3.04
2019-02-06T14:36:50.463Z,2.94
2019-02-06T14:42:45.466Z,8.12
2019-02-06T14:48:40.476Z,3.41
2019-02-06T14:54:35.475Z,3.22
2019-02-06T15:00:30.507Z,5.69
2019-02-06T15:06:25.502Z,3.61
2019-02-06T15:12:20.476Z,4.21
2019-02-06T15:18:15.496Z,4
2019-02-06T15:24:10.494Z,6.78
2019-02-06T15:30:05.497Z,2.73
2019-02-06T15:36:00.565Z,3.93
2019-02-06T15:41:55.526Z,5.45
2019-02-06T15:47:50.608Z,2.57
2019-02-06T15:53:48.123Z,5.63
2019-02-06T15:59:40.505Z,5.24
2019-02-06T16:05:35.520Z,4.69
2019-02-06T16:11:41.619Z,3.81
2019-02-06T16:17:25.520Z,2.7
2019-02-06T16:23:20.546Z,4.53
2019-02-06T16:29:15.516Z,6.28
2019-02-06T16:35:10.537Z,3
2019-02-06T16:41:05.564Z,6.46
2019-02-06T16:47:00.519Z,6.25
2019-02-06T16:52:55.563Z,3.21
2019-02-06T16:58:50.539Z,5.39
2019-02-06T17:04:45.582Z,3.28
2019-02-06T17:10:40.577Z,6.12
2019-02-06T17:16:35.551Z,2.87
2019-02-06T17:22:30.569Z,2.69
2019-02-06T17:28:25.554Z,3.14
2019-02-06T17:34:20.575Z,4.3
2019-02-06T17:40:15.577Z,5.87
2019-02-06T17:46:10.578Z,5.12
2019-02-06T17:52:05.570Z,3.8
2019-02-06T17:58:00.571Z,5.03
2019-02-06T18:03:55.599Z,3.87
2019-02-06T18:09:50.567Z,4.11
2019-02-06T18:15:45.619Z,3.76
2019-02-06T18:21:40.573Z,3.31
2019-02-06T18:27:35.619Z,4.6
2019-02-06T18:33:30.613Z,4.88
2019-02-06T18:39:25.636Z,7.03
2019-02-06T18:45:20.602Z,3.43
2019-02-06T18:51:15.594Z,5.26
2019-02-06T18:57:10.627Z,3.63
2019-02-06T19:03:05.622Z,4.13
2019-02-06T19:09:00.592Z,3.42
2019-02-06T19:14:55.607Z,2.82
2019-02-06T19:20:50.643Z,2.8
2019-02-06T19:26:45.634Z,2.81
2019-02-06T19:32:40.667Z,5.55
2019-02-06T19:38:35.639Z,3.1
2019-02-06T19:44:30.617Z,5.35
2019-02-06T19:50:25.646Z,5.18
2019-02-06T19:56:20.623Z,3.6
2019-02-06T20:02:15.647Z,3.51
2019-02-06T20:08:10.649Z,3.22
2019-02-06T20:14:05.647Z,4.42
2019-02-06T20:20:00.653Z,2.77
2019-02-06T20:25:55.655Z,3.37
2019-02-06T20:31:50.664Z,3.4
2019-02-06T20:37:45.687Z,2.79
2019-02-06T20:43:40.680Z,2.77
2019-02-06T20:49:35.661Z,2.54
2019-02-06T20:55:30.667Z,2.34
2019-02-06T21:01:25.699Z,2.4
2019-02-06T21:07:20.675Z,1.91
2019-02-06T21:13:15.688Z,2.59
2019-02-06T21:19:10.702Z,1.98
2019-02-06T21:25:05.686Z,2.61
2019-02-06T21:31:00.685Z,1.75
2019-02-06T21:36:55.766Z,3.37
2019-02-06T21:42:50.703Z,1.75
2019-02-06T21:48:45.704Z,1.64
2019-02-06T21:54:40.716Z,1.57
2019-02-06T22:00:35.746Z,2.1
2019-02-06T22:06:30.707Z,2.06
2019-02-06T22:12:25.718Z,1.87
2019-02-06T22:18:20.738Z,1.39
2019-02-06T22:24:15.716Z,1.49
2019-02-06T22:30:10.743Z,2.17
2019-02-06T22:36:05.727Z,1.54
2019-02-06T22:42:00.729Z,1.33
2019-02-06T22:47:55.732Z,2.9
2019-02-06T22:53:50.723Z,1.13
2019-02-06T22:59:45.741Z,1.39
2019-02-06T23:05:40.764Z,2.02
2019-02-06T23:11:35.815Z,1.34
2019-02-06T23:17:30.783Z,1.66
2019-02-06T23:23:25.763Z,1.47
2019-02-06T23:29:20.784Z,1.31
2019-02-06T23:35:15.743Z,1.38
2019-02-06T23:41:10.764Z,1.22
2019-02-06T23:47:05.761Z,1.49
2019-02-06T23:53:00.800Z,1.25
2019-02-06T23:58:58.355Z,1.83
